Time;durP1;ratioP1;P1;durP2;ratioP2;P2;SDS_P1;SDS_P2;PMS_P1;PMS_P2;Temp;Humidity;BMP_temperature;BMP_pressure;BME280_temperature;BME280_humidity;BME280_pressure;Samples;Min_cycle;Max_cycle;Signal;HPM_P1;HPM_P2
2022/03/01 00:00:13;;;;;;;26.45;13.90;;;;;;;-0.15;83.48;102822.94;5050421;28;20041;-77
2022/03/01 00:02:38;;;;;;;25.95;13.95;;;;;;;-0.22;82.78;102811.50;5050429;28;20068;-77
2022/03/01 00:05:04;;;;;;;29.30;14.55;;;;;;;-0.24;82.72;102815.66;5051255;28;20039;-77
2022/03/01 00:07:29;;;;;;;26.35;14.27;;;;;;;-0.29;82.24;102817.09;5051089;28;20067;-77
2022/03/01 00:09:54;;;;;;;24.50;13.65;;;;;;;-0.35;83.62;102820.22;5071303;28;20115;-76
2022/03/01 00:12:20;;;;;;;23.08;14.10;;;;;;;-0.39;83.84;102818.31;5062830;28;20029;-77
2022/03/01 00:14:45;;;;;;;23.30;13.43;;;;;;;-0.40;83.65;102825.91;5050089;28;20048;-77
2022/03/01 00:17:10;;;;;;;24.98;14.23;;;;;;;-0.42;83.12;102823.25;5050445;28;20025;-77
2022/03/01 00:19:36;;;;;;;22.35;13.80;;;;;;;-0.45;83.51;102817.09;5051366;28;20029;-77
2022/03/01 00:22:01;;;;;;;23.35;13.80;;;;;;;-0.48;83.95;102813.56;5049738;28;20167;-77
2022/03/01 00:24:26;;;;;;;27.65;14.52;;;;;;;-0.48;83.71;102816.13;5053798;28;20618;-77
2022/03/01 00:26:52;;;;;;;24.85;14.27;;;;;;;-0.52;83.77;102811.66;5054410;28;20444;-77
2022/03/01 00:29:17;;;;;;;23.85;13.82;;;;;;;-0.56;83.52;102809.69;5053734;28;20510;-77
2022/03/01 00:31:42;;;;;;;21.73;13.90;;;;;;;-0.64;83.99;102804.97;5054799;28;20032;-77
2022/03/01 00:34:08;;;;;;;27.60;14.88;;;;;;;-0.60;84.62;102814.59;5054272;28;20040;-76
2022/03/01 00:36:36;;;;;;;26.90;13.88;;;;;;;-0.63;84.33;102822.09;5054136;28;20028;-76
2022/03/01 00:39:05;;;;;;;22.75;14.30;;;;;;;-0.66;85.45;102816.81;5054081;28;20029;-77
2022/03/01 00:41:31;;;;;;;24.38;13.80;;;;;;;-0.67;85.23;102820.19;5054619;28;20036;-77
2022/03/01 00:43:56;;;;;;;22.88;13.50;;;;;;;-0.70;85.98;102815.78;5052985;28;20025;-76
2022/03/01 00:46:23;;;;;;;24.95;14.07;;;;;;;-0.72;85.00;102822.47;5053907;28;20055;-77
2022/03/01 00:48:49;;;;;;;21.80;12.90;;;;;;;-0.72;84.63;102831.06;5054526;28;20136;-76
2022/03/01 00:51:14;;;;;;;29.08;13.50;;;;;;;-0.72;85.19;102827.59;5053442;28;20562;-76
2022/03/01 00:53:40;;;;;;;23.48;13.30;;;;;;;-0.79;84.77;102816.13;5054443;28;20066;-77
2022/03/01 00:56:05;;;;;;;24.50;13.93;;;;;;;-0.79;85.26;102823.81;5054001;28;20028;-76
2022/03/01 00:58:31;;;;;;;27.75;15.10;;;;;;;-0.81;85.85;102827.13;5053022;28;20472;-76
2022/03/01 01:00:57;;;;;;;25.88;14.55;;;;;;;-0.83;84.85;102827.03;5053651;28;20032;-76
2022/03/01 01:03:22;;;;;;;27.90;15.07;;;;;;;-0.87;84.64;102822.53;5054203;28;20029;-76
2022/03/01 01:05:47;;;;;;;26.95;14.18;;;;;;;-0.88;85.14;102830.13;5053400;28;20044;-76
2022/03/01 01:08:13;;;;;;;26.52;15.18;;;;;;;-0.93;85.17;102822.19;5065775;28;20029;-76
2022/03/01 01:10:38;;;;;;;24.92;14.32;;;;;;;-0.90;85.41;102814.69;5054553;28;20025;-76
2022/03/01 01:13:03;;;;;;;29.02;14.65;;;;;;;-0.92;85.26;102811.16;5053127;28;20459;-76
2022/03/01 01:15:29;;;;;;;30.50;15.35;;;;;;;-0.91;84.99;102825.72;5053572;28;20031;-76
2022/03/01 01:17:54;;;;;;;24.27;14.18;;;;;;;-0.94;85.24;102828.13;5052915;28;20024;-76
2022/03/01 01:20:19;;;;;;;28.05;14.00;;;;;;;-0.96;85.27;102824.59;5053700;28;20392;-76
2022/03/01 01:22:45;;;;;;;28.40;14.13;;;;;;;-0.95;85.36;102824.69;5053958;28;20029;-76
2022/03/01 01:25:15;;;;;;;23.17;13.98;;;;;;;-0.93;85.75;102821.31;5052401;28;20055;-76
2022/03/01 01:27:43;;;;;;;23.67;14.13;;;;;;;-0.94;86.29;102823.00;5053812;28;20032;-76
2022/03/01 01:30:11;;;;;;;24.13;14.40;;;;;;;-0.92;85.65;102812.84;5049871;28;20025;-76
2022/03/01 01:32:38;;;;;;;25.92;13.40;;;;;;;-0.91;84.47;102824.84;5042846;28;20045;-76
2022/03/01 01:35:04;;;;;;;23.05;12.95;;;;;;;-0.90;85.36;102817.25;5053087;28;20381;-76
2022/03/01 01:37:29;;;;;;;22.92;13.15;;;;;;;-0.87;85.76;102816.53;5052523;28;20037;-76
2022/03/01 01:39:55;;;;;;;24.30;13.43;;;;;;;-0.92;85.83;102806.03;5053017;28;20035;-76
2022/03/01 01:42:20;;;;;;;22.63;12.60;;;;;;;-0.86;86.57;102806.38;5052914;28;20021;-76
2022/03/01 01:44:46;;;;;;;25.77;14.40;;;;;;;-0.80;86.46;102818.63;5053753;28;20025;-76
2022/03/01 01:47:11;;;;;;;26.83;13.27;;;;;;;-0.79;85.25;102818.69;5051773;28;20064;-76
2022/03/01 01:49:37;;;;;;;23.10;13.13;;;;;;;-0.79;85.25;102811.00;5053472;28;20075;-77
2022/03/01 01:52:02;;;;;;;25.58;13.70;;;;;;;-0.77;85.68;102813.69;5052549;28;20397;-77
2022/03/01 01:54:28;;;;;;;22.48;13.07;;;;;;;-0.79;84.91;102815.25;5052236;28;20040;-76
2022/03/01 01:56:54;;;;;;;24.52;14.23;;;;;;;-0.78;85.36;102801.69;5051700;28;20126;-76
2022/03/01 01:59:19;;;;;;;24.50;14.65;;;;;;;-0.76;85.16;102811.19;5053143;28;20021;-76
2022/03/01 02:01:45;;;;;;;23.83;13.43;;;;;;;-0.75;85.28;102815.53;5052669;28;20431;-76
2022/03/01 02:04:10;;;;;;;25.70;12.80;;;;;;;-0.75;85.46;102801.84;5052224;28;20032;-76
2022/03/01 02:06:53;;;;;;;23.10;13.63;;;;;;;-0.74;84.66;102807.03;5052700;28;20029;-76
2022/03/01 02:09:18;;;;;;;24.58;14.20;;;;;;;-0.75;84.86;102807.84;5050800;28;20032;-76
2022/03/01 02:11:44;;;;;;;24.30;13.25;;;;;;;-0.77;84.73;102803.44;5052447;28;20396;-76
2022/03/01 02:14:09;;;;;;;25.50;13.15;;;;;;;-0.76;84.10;102800.94;5051548;28;20488;-76
2022/03/01 02:16:36;;;;;;;24.05;13.95;;;;;;;-0.85;84.13;102797.91;5062710;28;20025;-76
2022/03/01 02:19:03;;;;;;;26.08;14.00;;;;;;;-0.82;84.28;102792.97;5052600;28;20043;-76
2022/03/01 02:21:29;;;;;;;25.02;13.90;;;;;;;-0.92;83.78;102789.78;5051800;28;20049;-76
2022/03/01 02:23:54;;;;;;;22.27;13.25;;;;;;;-0.80;83.98;102798.16;5052485;28;20039;-76
2022/03/01 02:26:19;;;;;;;25.63;14.10;;;;;;;-0.82;84.84;102798.06;5052250;28;20027;-76
2022/03/01 02:28:45;;;;;;;23.88;13.25;;;;;;;-0.79;85.22;102800.78;5051589;28;20389;-76
2022/03/01 02:31:10;;;;;;;26.45;14.40;;;;;;;-0.74;84.22;102801.03;5052012;28;20037;-76
2022/03/01 02:33:35;;;;;;;23.15;13.73;;;;;;;-0.73;85.19;102803.66;5052694;28;20094;-76
2022/03/01 02:36:00;;;;;;;24.88;13.88;;;;;;;-0.67;83.86;102803.13;5051323;28;20021;-76
2022/03/01 02:38:26;;;;;;;24.77;14.02;;;;;;;-0.65;83.86;102795.53;5052126;28;20393;-76
2022/03/01 02:40:51;;;;;;;22.98;13.18;;;;;;;-0.60;83.49;102794.97;5052444;28;20033;-76
2022/03/01 02:43:16;;;;;;;22.65;13.73;;;;;;;-0.53;84.11;102797.03;5050704;28;20029;-76
2022/03/01 02:45:42;;;;;;;30.52;14.25;;;;;;;-0.48;83.59;102794.75;5051813;28;20032;-76
2022/03/01 02:48:07;;;;;;;26.40;14.20;;;;;;;-0.44;82.39;102794.09;5051053;28;20060;-77
2022/03/01 02:50:32;;;;;;;27.17;13.38;;;;;;;-0.36;81.57;102792.84;5051473;28;20048;-77
2022/03/01 02:52:58;;;;;;;25.60;13.07;;;;;;;-0.30;80.74;102793.13;5051635;28;20024;-77
2022/03/01 02:55:23;;;;;;;22.27;13.65;;;;;;;-0.25;81.85;102781.44;5051732;28;20061;-77
2022/03/01 02:57:48;;;;;;;24.05;13.77;;;;;;;-0.23;80.76;102773.81;5050862;28;20108;-76
2022/03/01 03:00:14;;;;;;;20.92;11.88;;;;;;;-0.18;81.34;102780.06;5051884;28;20496;-76
2022/03/01 03:02:39;;;;;;;22.15;13.10;;;;;;;-0.15;80.38;102776.81;5052220;28;20029;-76
2022/03/01 03:05:06;;;;;;;22.30;13.05;;;;;;;-0.10;79.84;102775.34;5051204;28;20536;-76
2022/03/01 03:07:31;;;;;;;23.33;13.10;;;;;;;-0.02;78.35;102771.50;5051553;28;20033;-76
2022/03/01 03:09:57;;;;;;;21.88;12.48;;;;;;;-0.03;79.23;102767.19;5051406;28;20090;-76
2022/03/01 03:12:22;;;;;;;24.88;12.50;;;;;;;0.02;78.19;102769.97;5050119;28;20028;-76
2022/03/01 03:14:48;;;;;;;21.73;12.00;;;;;;;0.06;78.86;102774.44;5051918;28;20558;-76
2022/03/01 03:17:13;;;;;;;21.50;12.32;;;;;;;0.05;78.45;102765.00;5051149;28;20028;-76
2022/03/01 03:19:38;;;;;;;23.23;12.90;;;;;;;0.05;77.92;102765.00;5051546;28;20033;-77
2022/03/01 03:22:05;;;;;;;22.63;12.40;;;;;;;0.00;77.96;102762.22;5051247;28;20510;-74
2022/03/01 03:24:30;;;;;;;22.55;13.18;;;;;;;0.02;79.44;102770.84;5050593;28;20029;-74
2022/03/01 03:26:56;;;;;;;24.73;13.23;;;;;;;0.02;78.83;102768.28;5051295;28;20079;-74
2022/03/01 03:29:21;;;;;;;22.92;13.23;;;;;;;0.04;79.31;102770.94;5051211;28;20029;-74
2022/03/01 03:31:46;;;;;;;21.40;12.70;;;;;;;0.04;79.25;102769.25;5050970;28;20071;-74
2022/03/01 03:34:12;;;;;;;22.77;12.43;;;;;;;0.02;78.41;102770.84;5051303;28;20033;-74
2022/03/01 03:36:39;;;;;;;23.77;12.07;;;;;;;-0.02;78.13;102761.25;5051659;28;20048;-74
2022/03/01 03:39:08;;;;;;;20.05;12.27;;;;;;;-0.01;78.17;102762.97;5050243;28;20094;-74
2022/03/01 03:41:33;;;;;;;22.70;12.45;;;;;;;0.00;78.21;102775.03;5051745;28;20025;-74
2022/03/01 03:43:59;;;;;;;26.58;12.93;;;;;;;-0.07;78.42;102765.22;5051119;28;20385;-74
2022/03/01 03:46:25;;;;;;;21.17;12.95;;;;;;;-0.02;78.36;102776.63;5050253;28;20116;-74
2022/03/01 03:48:52;;;;;;;26.13;12.68;;;;;;;-0.04;78.36;102775.66;5051067;28;20028;-74
2022/03/01 03:51:17;;;;;;;22.25;12.98;;;;;;;-0.09;79.39;102764.31;5051074;28;20033;-74
2022/03/01 03:53:43;;;;;;;25.80;14.00;;;;;;;-0.09;78.35;102767.75;5050411;28;20374;-74
2022/03/01 03:56:08;;;;;;;23.75;13.13;;;;;;;-0.08;80.00;102774.63;5050658;28;20103;-74
2022/03/01 03:58:34;;;;;;;24.45;13.45;;;;;;;-0.07;81.24;102767.81;5052531;28;20503;-74
2022/03/01 04:00:59;;;;;;;21.30;12.85;;;;;;;-0.10;80.41;102770.22;5054420;28;20029;-74
2022/03/01 04:03:24;;;;;;;23.05;13.63;;;;;;;-0.13;81.01;102775.19;5055227;28;20029;-74
2022/03/01 04:05:50;;;;;;;23.85;13.15;;;;;;;-0.15;80.51;102772.53;5055261;28;20491;-74
2022/03/01 04:08:16;;;;;;;22.67;13.32;;;;;;;-0.14;78.71;102766.59;5054026;28;20052;-74
2022/03/01 04:10:42;;;;;;;22.17;12.88;;;;;;;-0.11;78.66;102768.47;5055456;28;20029;-74
2022/03/01 04:13:07;;;;;;;22.30;12.90;;;;;;;-0.08;79.41;102778.88;5054421;28;20043;-74
2022/03/01 04:15:32;;;;;;;23.52;12.93;;;;;;;-0.07;79.08;102768.69;5054769;28;20021;-74
2022/03/01 04:17:58;;;;;;;22.60;12.70;;;;;;;-0.03;79.33;102764.63;5054348;28;20040;-74
2022/03/01 04:20:23;;;;;;;23.08;13.27;;;;;;;0.00;79.17;102772.47;5055129;28;20028;-74
2022/03/01 04:22:49;;;;;;;24.15;13.10;;;;;;;0.02;79.34;102775.97;5053767;28;20036;-74
2022/03/01 04:25:14;;;;;;;21.33;12.68;;;;;;;0.04;78.08;102774.38;5055086;28;20451;-74
2022/03/01 04:27:40;;;;;;;23.73;13.40;;;;;;;0.12;78.42;102778.19;5053934;28;20028;-74
2022/03/01 04:30:07;;;;;;;20.98;13.30;;;;;;;0.18;77.32;102782.75;5054788;28;20029;-74
2022/03/01 04:32:32;;;;;;;22.85;13.63;;;;;;;0.20;77.59;102776.03;5054568;28;20120;-74
2022/03/01 04:34:58;;;;;;;22.25;12.95;;;;;;;0.25;76.51;102778.81;5054138;28;20112;-74
2022/03/01 04:37:23;;;;;;;20.52;11.73;;;;;;;0.25;76.92;102771.09;5054155;28;20029;-74
2022/03/01 04:39:48;;;;;;;23.58;13.38;;;;;;;0.36;77.38;102782.78;5054928;28;20024;-74
2022/03/01 04:42:14;;;;;;;27.55;13.52;;;;;;;0.38;76.32;102774.34;5053786;28;20477;-74
2022/03/01 04:44:39;;;;;;;25.77;13.55;;;;;;;0.39;75.56;102772.66;5055008;28;20025;-74
2022/03/01 04:47:05;;;;;;;24.65;13.38;;;;;;;0.44;75.77;102774.66;5053861;28;20469;-74
2022/03/01 04:49:31;;;;;;;27.13;13.95;;;;;;;0.41;75.89;102764.22;5053578;28;20040;-74
2022/03/01 04:51:56;;;;;;;23.48;13.15;;;;;;;0.49;75.55;102768.84;5054063;28;20029;-74
2022/03/01 04:54:22;;;;;;;22.42;12.90;;;;;;;0.52;75.55;102767.31;5054449;28;20036;-74
2022/03/01 04:56:47;;;;;;;23.17;12.55;;;;;;;0.55;75.28;102775.16;5053256;28;20044;-74
2022/03/01 04:59:12;;;;;;;22.52;12.63;;;;;;;0.58;74.10;102766.75;5053653;28;20685;-74
2022/03/01 05:01:38;;;;;;;26.20;13.23;;;;;;;0.57;75.26;102763.28;5054457;28;20044;-74
2022/03/01 05:04:03;;;;;;;23.02;12.73;;;;;;;0.62;74.16;102763.50;5053328;28;20385;-74
2022/03/01 05:06:30;;;;;;;21.95;12.55;;;;;;;0.64;74.49;102767.91;5053537;28;20469;-74
2022/03/01 05:08:55;;;;;;;22.40;12.40;;;;;;;0.63;74.29;102766.16;5052717;28;20116;-74
2022/03/01 05:11:21;;;;;;;24.13;13.15;;;;;;;0.59;73.91;102750.53;5053051;28;20170;-74
2022/03/01 05:13:47;;;;;;;23.20;13.32;;;;;;;0.66;73.33;102771.44;5053192;28;20463;-74
2022/03/01 05:16:12;;;;;;;20.75;12.35;;;;;;;0.66;73.73;102758.63;5053451;28;20151;-74
2022/03/01 05:18:38;;;;;;;23.20;12.40;;;;;;;0.65;73.82;102758.53;5053128;28;20033;-74
2022/03/01 05:21:03;;;;;;;27.25;12.93;;;;;;;0.64;73.38;102770.47;5053595;28;20029;-74
2022/03/01 05:23:28;;;;;;;25.27;13.10;;;;;;;0.63;73.23;102762.72;5059451;28;20020;-74
2022/03/01 05:25:54;;;;;;;22.90;12.73;;;;;;;0.58;74.12;102761.59;5062162;28;20087;-74
2022/03/01 05:28:19;;;;;;;21.42;13.05;;;;;;;0.57;75.17;102753.03;5053146;28;20104;-74
2022/03/01 05:30:45;;;;;;;23.63;13.13;;;;;;;0.55;74.93;102754.63;5054413;28;20025;-74
2022/03/01 05:33:10;;;;;;;20.25;12.68;;;;;;;0.44;75.27;102735.28;5052479;28;20099;-74
2022/03/01 05:35:35;;;;;;;21.88;12.40;;;;;;;0.45;74.81;102743.03;5053942;28;20056;-74
2022/03/01 05:38:02;;;;;;;23.65;12.23;;;;;;;0.36;77.12;102732.38;5052628;28;20366;-74
2022/03/01 05:40:30;;;;;;;23.00;13.30;;;;;;;0.30;77.33;102737.19;5053126;28;20040;-74
2022/03/01 05:42:55;;;;;;;22.42;13.05;;;;;;;0.25;75.48;102732.63;5052975;28;20384;-74
2022/03/01 05:45:21;;;;;;;25.08;13.35;;;;;;;0.27;76.82;102742.16;5052298;28;20029;-74
2022/03/01 05:47:47;;;;;;;20.38;12.40;;;;;;;0.21;75.94;102735.03;5052845;28;20045;-74
2022/03/01 05:50:14;;;;;;;22.77;12.43;;;;;;;0.18;75.77;102729.75;5053163;28;20032;-74
2022/03/01 05:52:40;;;;;;;23.23;13.38;;;;;;;0.13;75.70;102728.69;5052509;28;20120;-74
2022/03/01 05:55:08;;;;;;;27.08;13.15;;;;;;;0.13;76.83;102738.03;5052948;28;20504;-74
2022/03/01 05:57:34;;;;;;;23.60;12.90;;;;;;;0.12;75.60;102739.72;5039104;28;20021;-74
2022/03/01 05:59:59;;;;;;;26.40;13.60;;;;;;;0.13;76.80;102733.81;5051716;28;20083;-74
2022/03/01 06:02:24;;;;;;;22.15;12.40;;;;;;;0.14;75.48;102734.69;5052955;28;20041;-74
2022/03/01 06:04:50;;;;;;;25.30;13.40;;;;;;;0.14;74.68;102729.56;5052747;28;20552;-74
2022/03/01 06:07:15;;;;;;;24.98;13.18;;;;;;;0.06;75.32;102724.03;5052129;28;20036;-74
2022/03/01 06:09:41;;;;;;;22.30;12.65;;;;;;;0.12;74.29;102733.72;5052553;28;20028;-74
2022/03/01 06:12:07;;;;;;;21.77;13.27;;;;;;;0.12;74.87;102731.16;5052733;28;20033;-74
2022/03/01 06:14:32;;;;;;;23.10;13.77;;;;;;;0.04;76.05;102723.09;5051608;28;20025;-74
2022/03/01 06:16:57;;;;;;;26.23;13.38;;;;;;;0.04;75.71;102728.22;5052433;28;20381;-74
2022/03/01 06:19:22;;;;;;;22.50;12.82;;;;;;;-0.02;76.36;102722.78;5052583;28;20114;-74
2022/03/01 06:21:48;;;;;;;21.60;12.40;;;;;;;-0.05;76.50;102720.06;5050922;28;20033;-74
2022/03/01 06:24:13;;;;;;;25.98;13.73;;;;;;;-0.10;76.31;102724.06;5052367;28;20036;-74
2022/03/01 06:26:39;;;;;;;22.75;13.23;;;;;;;-0.08;78.49;102731.03;5052432;28;20108;-74
2022/03/01 06:29:05;;;;;;;23.98;13.00;;;;;;;-0.09;76.32;102729.28;5051477;28;20021;-74
2022/03/01 06:31:30;;;;;;;23.25;14.20;;;;;;;-0.09;76.31;102739.53;5051875;28;20411;-74
2022/03/01 06:33:56;;;;;;;22.13;13.05;;;;;;;-0.10;76.24;102740.34;5052104;28;20029;-74
2022/03/01 06:36:22;;;;;;;25.70;14.88;;;;;;;-0.08;77.11;102741.28;5051887;28;20053;-74
2022/03/01 06:38:48;;;;;;;27.42;14.18;;;;;;;-0.04;76.06;102743.19;5052529;28;20029;-74
2022/03/01 06:41:13;;;;;;;27.50;14.43;;;;;;;0.03;75.60;102754.63;5050935;28;20451;-74
2022/03/01 06:43:38;;;;;;;25.23;13.82;;;;;;;0.08;76.63;102758.31;5051948;28;20040;-74
2022/03/01 06:46:04;;;;;;;26.13;13.93;;;;;;;0.14;77.64;102760.31;5052176;28;20031;-74
2022/03/01 06:48:29;;;;;;;24.48;13.43;;;;;;;0.13;76.87;102743.16;5050855;28;20408;-74
2022/03/01 06:50:54;;;;;;;27.05;15.40;;;;;;;0.22;78.31;102757.31;5051878;28;20036;-74
2022/03/01 06:53:20;;;;;;;26.17;14.05;;;;;;;0.28;78.47;102761.88;5051882;28;20037;-74
2022/03/01 06:55:45;;;;;;;26.98;14.35;;;;;;;0.32;77.68;102760.34;5050475;28;20067;-74
2022/03/01 06:58:11;;;;;;;29.10;15.60;;;;;;;0.39;77.11;102771.00;5051064;28;20028;-74
2022/03/01 07:00:36;;;;;;;26.98;15.07;;;;;;;0.47;76.57;102777.38;5052063;28;20029;-74
2022/03/01 07:03:02;;;;;;;27.23;15.02;;;;;;;0.49;77.02;102771.41;5051007;28;20029;-74
2022/03/01 07:05:27;;;;;;;26.23;15.98;;;;;;;0.52;76.71;102763.88;5051605;28;20025;-74
2022/03/01 07:07:53;;;;;;;28.50;15.10;;;;;;;0.73;76.66;102779.44;5052231;28;20067;-74
2022/03/01 07:10:18;;;;;;;23.05;15.02;;;;;;;0.82;76.11;102774.75;5071218;28;20115;-74
2022/03/01 07:12:45;;;;;;;30.52;16.02;;;;;;;0.91;76.86;102780.28;5065083;28;20074;-74
2022/03/01 07:15:11;;;;;;;29.77;15.30;;;;;;;1.00;75.21;102775.59;5051625;28;20079;-74
2022/03/01 07:17:36;;;;;;;29.48;15.43;;;;;;;1.11;74.51;102770.94;5068084;28;20032;-74
2022/03/01 07:20:03;;;;;;;27.35;15.80;;;;;;;1.25;74.43;102761.31;5056766;28;20385;-74
2022/03/01 07:22:28;;;;;;;25.98;15.02;;;;;;;1.35;72.79;102758.34;5054559;28;20031;-74
2022/03/01 07:24:53;;;;;;;34.38;16.83;;;;;;;1.46;72.86;102761.41;5070931;28;20395;-74
2022/03/01 07:27:18;;;;;;;29.70;15.80;;;;;;;1.53;73.04;102774.59;5061564;28;20048;-74
2022/03/01 07:29:44;;;;;;;30.00;16.13;;;;;;;1.61;71.70;102777.50;5051963;28;20495;-74
2022/03/01 07:32:09;;;;;;;30.67;14.80;;;;;;;1.69;71.95;102772.69;5049869;28;20033;-74
2022/03/01 07:34:36;;;;;;;27.05;15.25;;;;;;;1.74;71.16;102773.78;5051882;28;20090;-74
2022/03/01 07:37:02;;;;;;;29.02;14.90;;;;;;;1.80;70.41;102772.38;5051043;28;20029;-74
2022/03/01 07:39:27;;;;;;;25.30;15.10;;;;;;;1.84;71.08;102778.50;5050956;28;20037;-74
2022/03/01 07:41:53;;;;;;;27.50;14.85;;;;;;;1.91;69.41;102783.09;5050461;28;20090;-74
2022/03/01 07:44:18;;;;;;;29.83;14.82;;;;;;;2.02;69.64;102796.41;5050993;28;20029;-74
2022/03/01 07:46:44;;;;;;;28.25;15.02;;;;;;;2.06;70.78;102798.31;5050533;28;20409;-75
2022/03/01 07:49:09;;;;;;;27.45;15.75;;;;;;;2.09;70.06;102789.06;5049411;28;20473;-75
2022/03/01 07:51:35;;;;;;;24.50;14.48;;;;;;;2.11;68.93;102787.41;5042198;28;20068;-74
2022/03/01 07:54:00;;;;;;;24.35;14.45;;;;;;;2.10;69.35;102780.50;5051655;28;20033;-74
2022/03/01 07:56:26;;;;;;;26.80;14.70;;;;;;;2.16;69.15;102768.69;5051467;28;20373;-74
2022/03/01 07:58:52;;;;;;;25.30;14.63;;;;;;;2.17;69.40;102771.34;5048991;28;20021;-74
2022/03/01 08:01:18;;;;;;;25.80;15.00;;;;;;;2.16;69.69;102773.84;5050865;28;20048;-74
2022/03/01 08:03:44;;;;;;;23.95;15.23;;;;;;;2.18;69.40;102767.06;5051606;28;20063;-75
2022/03/01 08:06:09;;;;;;;25.80;14.82;;;;;;;2.19;68.42;102774.88;5050008;28;20029;-74
2022/03/01 08:08:35;;;;;;;26.58;14.45;;;;;;;2.23;69.87;102778.44;5051408;28;20388;-74
2022/03/01 08:11:00;;;;;;;25.13;14.02;;;;;;;2.29;68.27;102782.16;5050780;28;20025;-76
2022/03/01 08:13:26;;;;;;;24.23;13.65;;;;;;;2.42;67.06;102783.53;5050575;28;20032;-76
2022/03/01 08:15:52;;;;;;;22.88;13.85;;;;;;;2.51;68.42;102783.91;5051277;28;20021;-76
2022/03/01 08:18:17;;;;;;;25.05;14.75;;;;;;;2.66;68.22;102786.22;5050212;28;20100;-76
2022/03/01 08:20:42;;;;;;;27.65;15.45;;;;;;;2.77;67.13;102787.50;5049003;28;20104;-76
2022/03/01 08:23:08;;;;;;;23.35;13.93;;;;;;;2.87;67.10;102781.03;5050557;28;20086;-77
2022/03/01 08:25:33;;;;;;;29.42;13.38;;;;;;;2.96;66.67;102786.53;5051607;28;20021;-77
2022/03/01 08:28:00;;;;;;;28.73;14.48;;;;;;;3.05;66.39;102788.63;5049470;28;20029;-76
2022/03/01 08:30:26;;;;;;;26.88;14.93;;;;;;;3.09;66.95;102776.72;5050700;28;20037;-76
2022/03/01 08:32:52;;;;;;;25.88;14.48;;;;;;;3.19;66.06;102782.28;5050983;28;20025;-77
2022/03/01 08:35:19;;;;;;;24.13;13.63;;;;;;;3.27;65.17;102791.19;5050196;28;20056;-76
2022/03/01 08:37:44;;;;;;;23.67;15.13;;;;;;;3.37;66.13;102796.66;5050476;28;20036;-76
2022/03/01 08:40:11;;;;;;;22.88;13.77;;;;;;;3.45;64.78;102795.25;5050672;28;20021;-76
2022/03/01 08:42:37;;;;;;;22.92;13.27;;;;;;;3.51;63.98;102796.38;5050483;28;20460;-76
2022/03/01 08:45:03;;;;;;;24.80;14.68;;;;;;;3.59;64.50;102788.03;5052406;28;20031;-75
2022/03/01 08:47:28;;;;;;;24.23;14.20;;;;;;;3.72;63.51;102797.97;5053917;28;20495;-74
2022/03/01 08:49:53;;;;;;;25.23;14.75;;;;;;;3.80;63.58;102793.97;5053353;28;20078;-77
2022/03/01 08:52:19;;;;;;;23.83;14.30;;;;;;;4.01;63.64;102806.75;5054242;28;20051;-75
2022/03/01 08:54:44;;;;;;;24.77;14.35;;;;;;;4.20;64.46;102811.72;5054959;28;20082;-76
2022/03/01 08:57:10;;;;;;;22.38;12.93;;;;;;;4.32;62.02;102810.38;5053538;28;20457;-76
2022/03/01 08:59:35;;;;;;;25.38;14.50;;;;;;;4.49;62.48;102804.06;5054772;28;20028;-76
2022/03/01 09:02:01;;;;;;;26.02;14.55;;;;;;;4.71;62.24;102813.41;5053496;28;20028;-76
2022/03/01 09:04:26;;;;;;;27.33;13.73;;;;;;;4.86;61.64;102805.25;5054595;28;20887;-76
2022/03/01 09:06:51;;;;;;;23.10;14.25;;;;;;;5.04;60.06;102811.00;5054635;28;20449;-76
2022/03/01 09:09:17;;;;;;;22.38;13.68;;;;;;;5.16;59.64;102815.66;5053605;28;20029;-76
2022/03/01 09:11:42;;;;;;;27.98;14.70;;;;;;;5.19;59.81;102817.47;5054498;28;20365;-76
2022/03/01 09:14:07;;;;;;;24.05;13.75;;;;;;;5.23;59.15;102817.63;5054003;28;20029;-76
2022/03/01 09:16:33;;;;;;;22.98;13.95;;;;;;;5.34;57.75;102823.97;5053549;28;20025;-76
2022/03/01 09:18:58;;;;;;;24.17;13.65;;;;;;;5.44;58.19;102811.31;5054202;28;20080;-76
2022/03/01 09:21:23;;;;;;;23.15;14.15;;;;;;;5.55;57.86;102804.72;5054248;28;20025;-76
2022/03/01 09:23:49;;;;;;;22.38;13.95;;;;;;;5.61;59.29;102795.44;5053491;28;20025;-76
2022/03/01 09:26:15;;;;;;;23.27;14.00;;;;;;;5.63;58.39;102809.31;5053927;28;20376;-76
2022/03/01 09:28:41;;;;;;;25.70;13.98;;;;;;;5.63;57.60;102808.44;5054259;28;20025;-76
2022/03/01 09:31:08;;;;;;;27.73;13.70;;;;;;;5.64;57.94;102805.00;5053025;28;20366;-76
2022/03/01 09:33:33;;;;;;;21.30;13.20;;;;;;;5.64;55.72;102807.59;5054250;28;20462;-76
2022/03/01 09:35:59;;;;;;;24.92;13.27;;;;;;;5.65;56.66;102811.91;5052851;28;20051;-76
2022/03/01 09:38:26;;;;;;;26.70;13.68;;;;;;;5.68;56.99;102811.13;5052825;28;20461;-76
2022/03/01 09:40:52;;;;;;;22.85;13.50;;;;;;;5.75;56.40;102795.81;5053056;28;20028;-76
2022/03/01 09:43:17;;;;;;;22.73;13.77;;;;;;;5.93;57.58;102804.97;5053384;28;20033;-75
2022/03/01 09:45:43;;;;;;;22.17;13.73;;;;;;;6.03;56.14;102801.78;5053001;28;20032;-75
2022/03/01 09:48:09;;;;;;;20.58;12.57;;;;;;;6.14;56.54;102812.41;5052690;28;20141;-76
2022/03/01 09:50:34;;;;;;;25.40;13.60;;;;;;;6.25;56.25;102809.28;5053285;28;20090;-76
2022/03/01 09:53:01;;;;;;;24.73;13.73;;;;;;;6.44;55.78;102815.81;5052435;28;20041;-76
2022/03/01 09:55:28;;;;;;;23.85;14.15;;;;;;;6.66;54.95;102819.78;5053072;28;20469;-76
2022/03/01 09:57:53;;;;;;;22.08;13.68;;;;;;;6.65;53.57;102797.31;5053081;28;20033;-75
2022/03/01 10:00:19;;;;;;;22.52;13.15;;;;;;;6.69;53.32;102814.69;5052547;28;20074;-76
2022/03/01 10:02:44;;;;;;;22.27;13.52;;;;;;;6.64;52.97;102824.06;5053813;28;20465;-76
2022/03/01 10:05:13;;;;;;;24.00;14.20;;;;;;;6.55;51.88;102826.44;5052637;28;20438;-76
2022/03/01 10:07:43;;;;;;;23.65;14.32;;;;;;;6.55;53.52;102823.84;5053605;28;20028;-75
2022/03/01 10:10:16;;;;;;;22.30;13.50;;;;;;;6.55;53.27;102818.66;5052814;28;20078;-76
2022/03/01 10:12:42;;;;;;;21.95;13.23;;;;;;;6.59;53.11;102817.88;5052618;28;20091;-76
2022/03/01 10:15:10;;;;;;;22.40;13.38;;;;;;;6.61;53.49;102818.81;5053091;28;20040;-76
2022/03/01 10:17:39;;;;;;;28.77;14.25;;;;;;;6.68;53.94;102823.31;5053524;28;20151;-76
2022/03/01 10:20:08;;;;;;;21.45;13.45;;;;;;;6.75;53.58;102819.13;5051735;28;20040;-76
2022/03/01 10:22:36;;;;;;;23.27;13.70;;;;;;;6.87;55.04;102819.44;5053101;28;20499;-76
2022/03/01 10:25:03;;;;;;;23.05;13.15;;;;;;;6.93;53.25;102813.50;5052836;28;20131;-76
2022/03/01 10:27:30;;;;;;;19.83;12.77;;;;;;;6.98;52.98;102811.91;5051973;28;20033;-76
2022/03/01 10:29:55;;;;;;;19.45;13.02;;;;;;;7.07;52.73;102812.13;5052676;28;20021;-76
2022/03/01 10:32:20;;;;;;;24.30;13.73;;;;;;;7.14;52.51;102807.94;5052303;28;20036;-76
2022/03/01 10:34:57;;;;;;;22.83;13.70;;;;;;;7.24;51.36;102810.75;5052282;28;20374;-76
2022/03/01 10:37:31;;;;;;;22.08;13.65;;;;;;;7.48;52.59;102806.94;5052735;28;20480;-76
2022/03/01 10:40:22;;;;;;;23.65;13.38;;;;;;;7.73;51.62;102797.91;5052580;28;20021;-76
2022/03/01 10:43:17;;;;;;;24.48;14.95;;;;;;;7.86;52.98;102801.63;5052701;28;20032;-76
2022/03/01 10:45:47;;;;;;;21.25;13.35;;;;;;;7.88;50.07;102795.63;5047736;28;20159;-76
2022/03/01 10:48:30;;;;;;;22.58;13.80;;;;;;;8.01;50.23;102799.34;5050731;28;20902;-76
2022/03/01 10:51:06;;;;;;;25.67;14.02;;;;;;;8.10;49.78;102803.78;5052525;28;20036;-76
2022/03/01 10:53:34;;;;;;;23.48;13.38;;;;;;;8.10;48.75;102809.88;5052411;28;20025;-82
2022/03/01 10:56:05;;;;;;;22.55;13.73;;;;;;;8.15;48.20;102815.16;5051299;28;20048;-76
2022/03/01 10:58:32;;;;;;;23.67;14.05;;;;;;;8.44;49.22;102813.09;5052158;28;20051;-76
2022/03/01 11:00:57;;;;;;;23.30;14.13;;;;;;;8.70;48.84;102821.34;5052252;28;20017;-76
2022/03/01 11:03:24;;;;;;;24.70;14.38;;;;;;;8.90;47.98;102811.22;5051507;28;20029;-76
2022/03/01 11:05:53;;;;;;;23.75;13.75;;;;;;;8.91;47.63;102806.03;5052360;28;20091;-76
2022/03/01 11:08:21;;;;;;;26.77;14.73;;;;;;;8.87;46.18;102816.38;5050601;28;20029;-76